createdAt,value
2024-01-20T00:00:50.036Z,0.51
2024-01-20T00:03:20.902Z,0.57
2024-01-20T00:05:52.370Z,0.62
2024-01-20T00:08:24.222Z,0.47
2024-01-20T00:10:57.221Z,0.59
2024-01-20T00:13:28.325Z,0.65
2024-01-20T00:15:58.847Z,0.63
2024-01-20T00:18:29.207Z,0.61
2024-01-20T00:20:59.767Z,0.64
2024-01-20T00:23:30.336Z,0.64
2024-01-20T00:26:03.428Z,0.64
2024-01-20T00:28:33.575Z,0.71
2024-01-20T00:31:04.057Z,0.67
2024-01-20T00:33:35.255Z,0.71
2024-01-20T00:36:05.984Z,0.59
2024-01-20T00:38:40.297Z,0.62
2024-01-20T00:41:13.541Z,0.65
2024-01-20T00:43:43.773Z,0.58
2024-01-20T00:46:14.186Z,0.64
2024-01-20T00:48:44.254Z,0.65
2024-01-20T00:51:14.594Z,0.66
2024-01-20T00:53:44.776Z,0.65
2024-01-20T00:56:17.941Z,0.64
2024-01-20T00:58:49.098Z,0.62
2024-01-20T01:01:21.766Z,0.62
2024-01-20T01:03:52.031Z,0.57
2024-01-20T01:06:22.208Z,0.54
2024-01-20T01:08:52.991Z,0.58
2024-01-20T01:11:25.792Z,0.52
2024-01-20T01:13:56.961Z,0.49
2024-01-20T01:16:27.054Z,0.36
2024-01-20T01:18:57.541Z,0.47
2024-01-20T01:21:27.646Z,0.42
2024-01-20T01:23:58.492Z,0.33
2024-01-20T01:26:33.335Z,0.40
2024-01-20T01:29:04.154Z,0.40
2024-01-20T01:31:34.175Z,0.37
2024-01-20T01:34:04.851Z,0.38
2024-01-20T01:36:34.929Z,0.38
2024-01-20T01:39:05.390Z,0.40
2024-01-20T01:41:38.425Z,0.49
2024-01-20T01:44:09.086Z,0.49
2024-01-20T01:46:48.372Z,0.50
2024-01-20T01:49:18.937Z,0.50
2024-01-20T01:51:49.571Z,0.51
2024-01-20T01:54:20.296Z,0.38
2024-01-20T01:56:55.675Z,0.49
2024-01-20T01:59:27.835Z,0.47
2024-01-20T02:01:58.393Z,0.30
2024-01-20T02:04:29.602Z,0.49
2024-01-20T02:07:00.598Z,0.45
2024-01-20T02:09:30.854Z,0.46
2024-01-20T02:12:04.896Z,0.44
2024-01-20T02:14:35.470Z,0.37
2024-01-20T02:17:05.660Z,0.29
2024-01-20T02:19:40.755Z,0.36
2024-01-20T02:22:17.680Z,0.45
2024-01-20T02:24:51.532Z,0.30
2024-01-20T02:27:22.885Z,0.58
2024-01-20T02:29:53.954Z,0.56
2024-01-20T02:32:24.340Z,0.61
2024-01-20T02:34:54.384Z,0.64
2024-01-20T02:37:27.425Z,0.61
2024-01-20T02:39:57.515Z,0.61
2024-01-20T02:42:28.443Z,0.56
2024-01-20T02:45:02.652Z,0.61
2024-01-20T02:47:32.906Z,0.56
2024-01-20T02:50:03.390Z,0.49
2024-01-20T02:52:36.228Z,0.56
2024-01-20T02:55:07.048Z,0.50
2024-01-20T02:57:37.150Z,0.51
2024-01-20T03:00:09.458Z,0.49
2024-01-20T03:02:39.591Z,0.60
2024-01-20T03:05:10.908Z,0.64
2024-01-20T03:07:43.795Z,0.68
2024-01-20T03:10:14.625Z,0.68
2024-01-20T03:12:44.636Z,0.69
2024-01-20T03:15:16.129Z,0.71
2024-01-20T03:17:46.099Z,0.70
2024-01-20T03:20:16.357Z,0.68
2024-01-20T03:22:49.090Z,0.68
2024-01-20T03:25:19.291Z,0.63
2024-01-20T03:27:49.500Z,0.57
2024-01-20T03:30:22.266Z,0.50
2024-01-20T03:32:54.015Z,0.46
2024-01-20T03:35:25.416Z,0.40
2024-01-20T03:37:58.493Z,0.47
2024-01-20T03:40:29.993Z,0.40
2024-01-20T03:43:02.314Z,0.39
2024-01-20T03:45:32.741Z,0.39
2024-01-20T03:48:03.323Z,0.50
2024-01-20T03:50:33.727Z,0.46
2024-01-20T03:53:07.416Z,0.54
2024-01-20T03:55:37.577Z,0.63
2024-01-20T03:58:08.896Z,0.68
2024-01-20T04:00:39.775Z,0.61
2024-01-20T04:03:11.993Z,0.68
2024-01-20T04:05:42.525Z,0.65
2024-01-20T04:08:15.504Z,0.60
2024-01-20T04:10:45.710Z,0.53
2024-01-20T04:13:16.100Z,0.46
2024-01-20T04:15:46.619Z,0.47
2024-01-20T04:18:16.732Z,0.41
2024-01-20T04:20:47.185Z,0.31
2024-01-20T04:23:20.170Z,0.33
2024-01-20T04:25:51.036Z,0.31
2024-01-20T04:28:21.357Z,0.30
2024-01-20T04:30:52.110Z,0.23
2024-01-20T04:33:22.813Z,0.17
2024-01-20T04:35:54.228Z,0.28
2024-01-20T04:38:28.212Z,0.21
2024-01-20T04:40:58.306Z,0.19
2024-01-20T04:43:28.746Z,0.16
2024-01-20T04:45:58.766Z,0.14
2024-01-20T04:48:30.101Z,0.11
2024-01-20T04:51:00.562Z,0.07
2024-01-20T04:53:33.617Z,0.07
2024-01-20T04:56:07.240Z,0.10
2024-01-20T04:58:37.339Z,0.03
2024-01-20T05:01:09.706Z,-0.02
2024-01-20T05:03:41.397Z,-0.26
2024-01-20T05:06:11.769Z,-0.03
2024-01-20T05:08:45.016Z,-0.05
2024-01-20T05:11:16.228Z,-0.15
2024-01-20T05:13:46.532Z,-0.07
2024-01-20T05:16:17.296Z,-0.06
2024-01-20T05:18:50.361Z,-0.04
2024-01-20T05:21:20.947Z,-0.15
2024-01-20T05:23:53.758Z,-0.12
2024-01-20T05:26:24.051Z,-0.14
2024-01-20T05:28:54.134Z,-0.20
2024-01-20T05:31:24.971Z,-0.16
2024-01-20T05:33:55.637Z,-0.24
2024-01-20T05:36:27.706Z,-0.18
2024-01-20T05:39:00.521Z,-0.20
2024-01-20T05:41:30.725Z,-0.19
2024-01-20T05:44:03.705Z,-0.29
2024-01-20T05:46:34.398Z,-0.28
2024-01-20T05:49:05.010Z,-0.27
2024-01-20T05:51:35.523Z,-0.25
2024-01-20T05:54:09.570Z,-0.27
2024-01-20T05:56:39.720Z,-0.31
2024-01-20T05:59:09.841Z,-0.31
2024-01-20T06:01:37.150Z,-0.32
2024-01-20T06:04:08.106Z,-0.33
2024-01-20T06:06:38.710Z,-0.45
2024-01-20T06:09:11.754Z,-0.36
2024-01-20T06:11:42.197Z,-0.48
2024-01-20T06:14:13.410Z,-0.36
2024-01-20T06:16:44.108Z,-0.33
2024-01-20T06:19:15.421Z,-0.30
2024-01-20T06:21:45.800Z,-0.29
2024-01-20T06:24:18.783Z,-0.14
2024-01-20T06:26:49.128Z,-0.08
2024-01-20T06:29:19.300Z,-0.01
2024-01-20T06:31:49.337Z,-0.03
2024-01-20T06:34:20.064Z,-0.20
2024-01-20T06:36:51.220Z,-0.25
2024-01-20T06:39:24.514Z,-0.28
2024-01-20T06:41:54.893Z,-0.51
2024-01-20T06:44:25.897Z,-0.41
2024-01-20T06:46:55.967Z,-0.32
2024-01-20T06:49:26.682Z,-0.49
2024-01-20T06:51:56.854Z,-0.37
2024-01-20T06:54:30.439Z,-0.43
2024-01-20T06:57:00.808Z,-0.47
2024-01-20T06:59:30.750Z,-0.46
2024-01-20T07:02:01.679Z,-0.48
2024-01-20T07:04:32.499Z,-0.46
2024-01-20T07:07:02.600Z,-0.51
2024-01-20T07:09:35.605Z,-0.53
2024-01-20T07:12:05.779Z,-0.48
2024-01-20T07:14:36.797Z,-0.60
2024-01-20T07:17:07.060Z,-0.56
2024-01-20T07:19:37.289Z,-0.49
2024-01-20T07:22:08.106Z,-0.47
2024-01-20T07:24:41.224Z,-0.52
2024-01-20T07:27:11.414Z,-0.50
2024-01-20T07:29:42.606Z,-0.46
2024-01-20T07:32:12.527Z,-0.46
2024-01-20T07:34:42.528Z,-0.50
2024-01-20T07:37:13.231Z,-0.51
2024-01-20T07:39:48.399Z,-0.57
2024-01-20T07:42:18.719Z,-0.53
2024-01-20T07:44:48.903Z,-0.62
2024-01-20T07:47:20.547Z,-0.51
2024-01-20T07:49:51.637Z,-0.54
2024-01-20T07:52:21.949Z,-0.50
2024-01-20T07:54:54.920Z,-0.52
2024-01-20T07:57:24.722Z,-0.51
2024-01-20T07:59:54.967Z,-0.48
2024-01-20T08:02:25.138Z,-0.57
2024-01-20T08:04:56.072Z,-0.48
2024-01-20T08:07:26.530Z,-0.55
2024-01-20T08:09:59.374Z,-0.32
2024-01-20T08:12:29.681Z,-0.30
2024-01-20T08:14:59.717Z,-0.25
2024-01-20T08:17:30.048Z,-0.22
2024-01-20T08:20:01.869Z,-0.31
2024-01-20T08:22:32.357Z,-0.09
2024-01-20T08:25:06.548Z,-0.22
2024-01-20T08:27:36.593Z,-0.04
2024-01-20T08:30:09.020Z,-0.20
2024-01-20T08:32:41.152Z,0.00
2024-01-20T08:35:12.575Z,0.07
2024-01-20T08:37:42.570Z,0.10
2024-01-20T08:40:16.153Z,0.15
2024-01-20T08:42:46.379Z,0.08
2024-01-20T08:45:16.761Z,0.23
2024-01-20T08:47:48.152Z,0.14
2024-01-20T08:50:19.663Z,0.17
2024-01-20T08:52:49.680Z,0.37
2024-01-20T08:55:22.336Z,0.34
2024-01-20T08:57:53.028Z,0.38
2024-01-20T09:00:23.894Z,0.40
2024-01-20T09:02:54.224Z,0.41
2024-01-20T09:05:24.479Z,0.48
2024-01-20T09:07:54.426Z,0.36
2024-01-20T09:10:32.675Z,0.48
2024-01-20T09:13:02.622Z,0.51
2024-01-20T09:15:33.345Z,0.59
2024-01-20T09:18:05.376Z,0.53
2024-01-20T09:20:36.486Z,0.40
2024-01-20T09:23:07.523Z,0.44
2024-01-20T09:25:40.511Z,0.49
2024-01-20T09:28:10.577Z,0.53
2024-01-20T09:30:41.160Z,0.51
2024-01-20T09:33:11.852Z,0.62
2024-01-20T09:35:42.482Z,0.62
2024-01-20T09:38:17.006Z,0.71
2024-01-20T09:40:51.091Z,0.79
2024-01-20T09:43:21.298Z,0.71
2024-01-20T09:45:51.993Z,0.79
2024-01-20T09:48:22.357Z,0.88
2024-01-20T09:50:53.766Z,0.82
2024-01-20T09:53:24.541Z,0.91
2024-01-20T09:55:58.567Z,0.93
2024-01-20T09:58:32.194Z,0.88
2024-01-20T10:01:05.025Z,0.89
2024-01-20T10:03:38.640Z,0.93
2024-01-20T10:06:09.776Z,1.07
2024-01-20T10:08:39.987Z,0.98
2024-01-20T10:11:12.936Z,1.08
2024-01-20T10:13:43.479Z,1.23
2024-01-20T10:16:13.646Z,1.14
2024-01-20T10:18:44.270Z,1.28
2024-01-20T10:21:14.548Z,1.19
2024-01-20T10:23:48.060Z,1.16
2024-01-20T10:26:21.971Z,1.40
2024-01-20T10:28:51.967Z,1.48
2024-01-20T10:31:25.991Z,1.48
2024-01-20T10:33:56.918Z,1.01
2024-01-20T10:36:28.790Z,1.59
2024-01-20T10:39:06.014Z,1.76
2024-01-20T10:41:44.319Z,1.91
2024-01-20T10:44:19.074Z,2.07
2024-01-20T10:46:52.321Z,2.07
2024-01-20T10:49:26.720Z,2.04
2024-01-20T10:51:59.037Z,2.12
2024-01-20T10:54:31.158Z,2.37
2024-01-20T10:57:04.321Z,2.30
2024-01-20T10:59:39.394Z,2.33
2024-01-20T11:02:11.048Z,2.39
2024-01-20T11:04:43.121Z,2.46
2024-01-20T11:07:14.440Z,2.53
2024-01-20T11:09:44.676Z,2.71
2024-01-20T11:12:17.425Z,2.86
2024-01-20T11:14:54.794Z,3.06
2024-01-20T11:17:26.203Z,3.11
2024-01-20T11:19:56.517Z,3.06
2024-01-20T11:22:34.526Z,3.54
2024-01-20T11:25:10.524Z,3.53
2024-01-20T11:28:01.930Z,3.45
2024-01-20T11:30:33.481Z,3.65
2024-01-20T11:33:06.458Z,3.48
2024-01-20T11:35:42.704Z,3.53
2024-01-20T11:38:14.241Z,3.58
2024-01-20T11:40:44.925Z,3.79
2024-01-20T11:43:18.180Z,3.33
2024-01-20T11:45:48.653Z,3.66
2024-01-20T11:48:19.697Z,3.54
2024-01-20T11:50:50.682Z,3.53
2024-01-20T11:53:22.209Z,3.24
2024-01-20T11:55:57.295Z,3.54
2024-01-20T11:58:33.016Z,3.52
2024-01-20T12:01:04.615Z,3.43
2024-01-20T12:03:35.368Z,3.36
2024-01-20T12:06:12.202Z,3.52
2024-01-20T12:08:46.684Z,3.84
2024-01-20T12:11:22.508Z,3.89
2024-01-20T12:13:55.301Z,3.92
2024-01-20T12:16:26.696Z,3.70
2024-01-20T12:18:57.866Z,3.63
2024-01-20T12:21:29.228Z,3.47
2024-01-20T12:23:59.659Z,3.24
2024-01-20T12:26:29.745Z,3.32
2024-01-20T12:29:04.093Z,3.33
2024-01-20T12:31:35.022Z,3.10
2024-01-20T12:34:05.810Z,2.85
2024-01-20T12:36:36.743Z,2.92
2024-01-20T12:39:07.970Z,2.75
2024-01-20T12:41:39.400Z,2.19
2024-01-20T12:44:12.640Z,2.49
2024-01-20T12:46:42.667Z,2.44
2024-01-20T12:49:13.559Z,2.25
2024-01-20T12:51:46.666Z,2.49
2024-01-20T12:54:18.136Z,2.59
2024-01-20T12:56:49.283Z,3.27
2024-01-20T12:59:22.415Z,3.27
2024-01-20T13:01:53.071Z,3.57
2024-01-20T13:04:26.609Z,3.33
2024-01-20T13:06:59.769Z,3.26
2024-01-20T13:09:30.986Z,2.99
2024-01-20T13:12:02.010Z,2.77
2024-01-20T13:14:35.292Z,2.42
2024-01-20T13:17:06.599Z,2.53
2024-01-20T13:19:37.670Z,2.23
2024-01-20T13:22:07.747Z,2.21
2024-01-20T13:24:38.279Z,2.36
2024-01-20T13:27:09.076Z,2.24
2024-01-20T13:29:42.176Z,2.20
2024-01-20T13:32:13.538Z,2.24
2024-01-20T13:34:44.145Z,2.22
2024-01-20T13:37:14.456Z,2.08
2024-01-20T13:39:44.426Z,2.17
2024-01-20T13:42:15.046Z,2.12
2024-01-20T13:44:48.420Z,2.04
2024-01-20T13:47:19.851Z,2.05
2024-01-20T13:49:51.020Z,2.07
2024-01-20T13:52:21.382Z,2.18
2024-01-20T13:54:53.390Z,2.15
2024-01-20T13:57:24.868Z,2.04
2024-01-20T13:59:58.116Z,2.56
2024-01-20T14:02:28.281Z,3.30
2024-01-20T14:04:58.787Z,4.31
2024-01-20T14:07:30.106Z,4.92
2024-01-20T14:10:03.176Z,5.37
2024-01-20T14:12:33.583Z,5.75
2024-01-20T14:15:07.787Z,5.71
2024-01-20T14:17:38.131Z,5.55
2024-01-20T14:20:10.600Z,5.73
2024-01-20T14:22:40.437Z,6.21
2024-01-20T14:25:12.156Z,6.04
2024-01-20T14:27:43.791Z,6.14
2024-01-20T14:30:18.916Z,5.85
2024-01-20T14:32:49.428Z,5.97
2024-01-20T14:35:19.860Z,5.25
2024-01-20T14:37:50.425Z,4.82
2024-01-20T14:40:20.628Z,4.39
2024-01-20T14:42:54.581Z,4.17
2024-01-20T14:45:27.505Z,4.36
2024-01-20T14:47:57.891Z,4.20
2024-01-20T14:50:27.950Z,4.04
2024-01-20T14:52:59.050Z,3.79
2024-01-20T14:55:31.668Z,3.53
2024-01-20T14:58:02.711Z,3.45
2024-01-20T15:00:35.468Z,3.49
2024-01-20T15:03:06.196Z,3.21
2024-01-20T15:05:36.894Z,3.18
2024-01-20T15:08:08.577Z,3.03
2024-01-20T15:10:38.769Z,2.67
2024-01-20T15:13:09.031Z,2.47
2024-01-20T15:15:42.043Z,2.33
2024-01-20T15:18:12.486Z,2.33
2024-01-20T15:20:42.539Z,2.02
2024-01-20T15:23:16.724Z,2.08
2024-01-20T15:25:52.656Z,1.84
2024-01-20T15:28:24.662Z,1.90
2024-01-20T15:30:59.214Z,1.84
2024-01-20T15:33:29.713Z,1.72
2024-01-20T15:36:01.556Z,1.60
2024-01-20T15:38:31.831Z,1.37
2024-01-20T15:41:02.201Z,1.25
2024-01-20T15:43:33.029Z,1.14
2024-01-20T15:46:06.378Z,1.10
2024-01-20T15:48:37.807Z,1.08
2024-01-20T15:51:09.341Z,0.87
2024-01-20T15:53:41.531Z,0.92
2024-01-20T15:56:15.320Z,0.88
2024-01-20T15:58:46.697Z,0.80
2024-01-20T16:01:22.042Z,0.70
2024-01-20T16:03:54.029Z,0.79
2024-01-20T16:06:26.219Z,0.76
2024-01-20T16:08:57.978Z,0.62
2024-01-20T16:11:28.271Z,0.67
2024-01-20T16:13:59.067Z,0.62
2024-01-20T16:16:31.937Z,0.68
2024-01-20T16:19:02.459Z,0.72
2024-01-20T16:21:34.979Z,0.54
2024-01-20T16:24:05.709Z,0.66
2024-01-20T16:26:35.790Z,0.65
2024-01-20T16:29:05.993Z,0.60
2024-01-20T16:31:41.483Z,0.63
2024-01-20T16:34:12.116Z,0.57
2024-01-20T16:36:42.701Z,0.58
2024-01-20T16:39:14.472Z,0.32
2024-01-20T16:41:46.247Z,0.41
2024-01-20T16:44:17.688Z,0.43
2024-01-20T16:46:57.951Z,0.41
2024-01-20T16:49:28.546Z,0.46
2024-01-20T16:51:59.817Z,0.37
2024-01-20T16:54:30.166Z,0.31
2024-01-20T16:57:00.459Z,0.50
2024-01-20T16:59:30.802Z,0.51
2024-01-20T17:02:03.987Z,0.40
2024-01-20T17:04:34.546Z,0.47
2024-01-20T17:07:04.702Z,0.53
2024-01-20T17:09:34.870Z,0.40
2024-01-20T17:12:05.477Z,0.30
2024-01-20T17:14:38.185Z,0.26
2024-01-20T17:17:11.984Z,0.24
2024-01-20T17:19:42.957Z,0.29
2024-01-20T17:22:13.241Z,0.24
2024-01-20T17:24:43.292Z,0.02
2024-01-20T17:27:13.938Z,0.17
2024-01-20T17:29:44.039Z,-0.02
2024-01-20T17:32:17.104Z,0.14
2024-01-20T17:34:47.136Z,0.11
2024-01-20T17:37:17.702Z,0.08
2024-01-20T17:39:48.413Z,-0.14
2024-01-20T17:42:19.261Z,-0.03
2024-01-20T17:44:49.979Z,0.05
2024-01-20T17:47:23.490Z,-0.16
2024-01-20T17:49:56.170Z,-0.03
2024-01-20T17:52:26.614Z,-0.06
2024-01-20T17:54:56.946Z,-0.01
2024-01-20T17:57:28.920Z,-0.14
2024-01-20T17:59:59.094Z,-0.09
2024-01-20T18:02:34.233Z,-0.11
2024-01-20T18:05:04.681Z,-0.27
2024-01-20T18:07:34.809Z,-0.16
2024-01-20T18:10:05.219Z,-0.17
2024-01-20T18:12:35.975Z,-0.42
2024-01-20T18:15:07.516Z,-0.24
2024-01-20T18:17:40.171Z,-0.26
2024-01-20T18:20:11.404Z,-0.26
2024-01-20T18:22:41.836Z,-0.27
2024-01-20T18:25:12.583Z,-0.36
2024-01-20T18:27:42.902Z,-0.49
2024-01-20T18:30:13.614Z,-0.34
2024-01-20T18:32:46.760Z,-0.59
2024-01-20T18:35:17.267Z,-0.44
2024-01-20T18:37:48.602Z,-0.46
2024-01-20T18:40:18.718Z,-0.49
2024-01-20T18:42:50.840Z,-0.40
2024-01-20T18:45:20.828Z,-0.47
2024-01-20T18:47:53.642Z,-0.53
2024-01-20T18:50:23.954Z,-0.50
2024-01-20T18:52:55.077Z,-0.53
2024-01-20T18:55:25.104Z,-0.64
2024-01-20T18:57:55.140Z,-0.62
2024-01-20T19:00:25.367Z,-0.66
2024-01-20T19:02:58.190Z,-0.58
2024-01-20T19:05:28.670Z,-0.60
2024-01-20T19:07:59.028Z,-0.63
2024-01-20T19:10:31.243Z,-0.61
2024-01-20T19:13:01.189Z,-0.62
2024-01-20T19:15:31.148Z,-0.57
2024-01-20T19:18:04.180Z,-0.56
2024-01-20T19:20:38.386Z,-0.59
2024-01-20T19:23:08.875Z,-0.62
2024-01-20T19:25:39.057Z,-0.67
2024-01-20T19:28:09.119Z,-0.58
2024-01-20T19:30:39.270Z,-0.60
2024-01-20T19:33:12.466Z,-0.65
2024-01-20T19:35:42.821Z,-0.55
2024-01-20T19:38:12.838Z,-0.59
2024-01-20T19:40:43.636Z,-0.55
2024-01-20T19:43:13.647Z,-0.56
2024-01-20T19:45:44.309Z,-0.58
2024-01-20T19:48:17.931Z,-0.57
2024-01-20T19:50:50.584Z,-0.59
2024-01-20T19:53:22.570Z,-0.61
2024-01-20T19:55:52.597Z,-0.68
2024-01-20T19:58:22.612Z,-0.66
2024-01-20T20:00:54.735Z,-0.62
2024-01-20T20:03:27.653Z,-0.69
2024-01-20T20:05:57.883Z,-0.70
2024-01-20T20:08:30.170Z,-0.64
2024-01-20T20:11:01.925Z,-0.59
2024-01-20T20:13:34.927Z,-0.74
2024-01-20T20:16:06.390Z,-0.74
2024-01-20T20:18:40.596Z,-0.51
2024-01-20T20:21:19.618Z,-0.43
2024-01-20T20:23:49.543Z,-0.60
2024-01-20T20:26:19.823Z,-0.53
2024-01-20T20:28:49.856Z,-0.45
2024-01-20T20:31:23.701Z,-0.48
2024-01-20T20:33:56.977Z,-0.38
2024-01-20T20:36:27.373Z,-0.40
2024-01-20T20:38:57.386Z,-0.37
2024-01-20T20:41:27.444Z,-0.26
2024-01-20T20:43:59.373Z,-0.43
2024-01-20T20:46:29.791Z,-0.22
2024-01-20T20:49:03.452Z,-0.23
2024-01-20T20:51:35.844Z,-0.23
2024-01-20T20:54:06.231Z,-0.21
2024-01-20T20:56:36.317Z,-0.17
2024-01-20T20:59:06.752Z,-0.11
2024-01-20T21:01:38.096Z,-0.08
2024-01-20T21:04:11.688Z,-0.08
2024-01-20T21:06:43.939Z,-0.01
2024-01-20T21:09:16.972Z,-0.01
2024-01-20T21:11:49.587Z,-0.04
2024-01-20T21:14:22.258Z,0.03
2024-01-20T21:16:53.809Z,-0.06
2024-01-20T21:19:27.709Z,-0.03
2024-01-20T21:21:59.689Z,-0.18
2024-01-20T21:24:30.186Z,-0.09
2024-01-20T21:27:01.269Z,-0.04
2024-01-20T21:29:31.441Z,-0.03
2024-01-20T21:32:01.409Z,-0.11
2024-01-20T21:34:34.195Z,-0.13
2024-01-20T21:37:04.715Z,-0.18
2024-01-20T21:39:34.682Z,-0.25
2024-01-20T21:42:04.977Z,-0.12
2024-01-20T21:44:34.921Z,-0.11
2024-01-20T21:47:05.209Z,-0.11
2024-01-20T21:49:38.076Z,0.00
2024-01-20T21:52:09.020Z,-0.03
2024-01-20T21:54:39.260Z,-0.06
2024-01-20T21:57:09.907Z,0.13
2024-01-20T21:59:40.003Z,0.11
2024-01-20T22:02:10.470Z,0.06
2024-01-20T22:04:44.449Z,0.02
2024-01-20T22:07:17.621Z,-0.19
2024-01-20T22:09:47.707Z,-0.16
2024-01-20T22:12:20.433Z,-0.31
2024-01-20T22:14:50.591Z,-0.28
2024-01-20T22:17:20.779Z,-0.37
2024-01-20T22:19:53.540Z,-0.37
2024-01-20T22:22:23.776Z,-0.42
2024-01-20T22:24:54.180Z,-0.44
2024-01-20T22:27:24.419Z,-0.52
2024-01-20T22:29:54.423Z,-0.55
2024-01-20T22:32:27.708Z,-0.52
2024-01-20T22:35:00.407Z,-0.49
2024-01-20T22:37:31.591Z,-0.50
2024-01-20T22:40:03.330Z,-0.46
2024-01-20T22:42:34.350Z,-0.46
2024-01-20T22:45:08.574Z,-0.49
2024-01-20T22:47:39.182Z,-0.25
2024-01-20T22:50:14.098Z,-0.09
2024-01-20T22:52:46.501Z,-0.06
2024-01-20T22:55:18.038Z,0.15
2024-01-20T22:57:49.098Z,0.19
2024-01-20T23:00:27.082Z,0.25
2024-01-20T23:02:59.588Z,0.34
2024-01-20T23:05:32.346Z,0.20
2024-01-20T23:08:02.431Z,0.32
2024-01-20T23:10:32.746Z,0.29
2024-01-20T23:13:05.720Z,0.34
2024-01-20T23:15:37.998Z,0.38
2024-01-20T23:18:08.592Z,0.34
2024-01-20T23:20:41.765Z,0.31
2024-01-20T23:23:12.635Z,0.20
2024-01-20T23:25:45.962Z,0.27
2024-01-20T23:28:15.976Z,0.05
2024-01-20T23:30:46.277Z,0.16
2024-01-20T23:33:30.716Z,0.13
2024-01-20T23:36:04.601Z,0.08
2024-01-20T23:38:34.444Z,0.08
2024-01-20T23:41:05.012Z,-0.09
2024-01-20T23:43:35.085Z,0.08
2024-01-20T23:46:06.656Z,0.17
2024-01-20T23:48:37.271Z,0.24
2024-01-20T23:51:10.716Z,0.20
2024-01-20T23:53:40.910Z,0.12
2024-01-20T23:56:11.309Z,0.07
2024-01-20T23:58:41.410Z,-0.02
